createdAt,value
2017-12-08T00:00:31.910Z,8.50
2017-12-08T00:03:14.701Z,8.80
2017-12-08T00:05:57.170Z,10.07
2017-12-08T00:08:39.587Z,11.20
2017-12-08T00:11:22.261Z,7.57
2017-12-08T00:14:06.066Z,10.90
2017-12-08T00:16:48.469Z,8.03
2017-12-08T00:19:31.213Z,8.27
2017-12-08T00:22:13.842Z,11.13
2017-12-08T00:24:56.489Z,7.73
2017-12-08T00:27:38.993Z,11.77
2017-12-08T00:30:21.646Z,8.37
2017-12-08T00:33:04.269Z,9.60
2017-12-08T00:35:46.771Z,8.67
2017-12-08T00:38:29.489Z,9.53
2017-12-08T00:41:12.085Z,11.00
2017-12-08T00:43:54.719Z,14.23
2017-12-08T00:46:38.220Z,9.07
2017-12-08T00:49:21.036Z,9.07
2017-12-08T00:52:03.562Z,9.80
2017-12-08T00:54:46.330Z,11.87
2017-12-08T00:57:28.849Z,11.40
2017-12-08T01:00:11.447Z,10.37
2017-12-08T01:02:54.199Z,11.77
2017-12-08T01:05:36.717Z,10.60
2017-12-08T01:08:19.223Z,17.13
2017-12-08T01:11:01.861Z,9.73
2017-12-08T01:13:44.489Z,10.77
2017-12-08T01:16:27.246Z,8.60
2017-12-08T01:19:09.994Z,11.40
2017-12-08T01:21:52.653Z,9.40
2017-12-08T01:24:35.210Z,15.00
2017-12-08T01:27:17.929Z,9.40
2017-12-08T01:30:00.550Z,8.47
2017-12-08T01:32:43.200Z,12.37
2017-12-08T01:35:25.842Z,9.87
2017-12-08T01:38:08.621Z,8.50
2017-12-08T01:40:52.481Z,9.03
2017-12-08T01:43:35.298Z,17.20
2017-12-08T01:46:19.046Z,7.50
2017-12-08T01:49:02.010Z,9.57
2017-12-08T01:51:44.781Z,6.67
2017-12-08T01:54:30.758Z,9.60
2017-12-08T01:57:13.209Z,8.57
2017-12-08T02:00:03.007Z,11.40
2017-12-08T02:02:45.521Z,9.10
2017-12-08T02:05:28.561Z,5.50
2017-12-08T02:08:11.030Z,9.10
2017-12-08T02:10:53.612Z,14.13
2017-12-08T02:13:37.286Z,9.03
2017-12-08T02:16:20.413Z,9.40
2017-12-08T02:19:02.930Z,10.60
2017-12-08T02:21:46.085Z,9.67
2017-12-08T02:24:28.304Z,8.50
2017-12-08T02:27:23.377Z,11.70
2017-12-08T02:30:05.609Z,11.00
2017-12-08T02:32:54.955Z,9.10
2017-12-08T02:35:37.930Z,12.70
2017-12-08T02:38:20.834Z,14.03
2017-12-08T02:41:10.393Z,10.60
2017-12-08T02:43:53.138Z,11.80
2017-12-08T02:46:35.650Z,7.13
2017-12-08T02:49:18.242Z,7.10
2017-12-08T02:52:06.998Z,8.77
2017-12-08T02:54:49.638Z,9.33
2017-12-08T02:57:33.662Z,10.83
2017-12-08T03:00:15.878Z,10.60
2017-12-08T03:02:58.394Z,9.43
2017-12-08T03:05:41.249Z,8.70
2017-12-08T03:08:23.690Z,12.43
2017-12-08T03:11:06.145Z,9.60
2017-12-08T03:13:49.049Z,9.13
2017-12-08T03:16:31.833Z,11.83
2017-12-08T03:19:14.558Z,15.73
2017-12-08T03:21:59.498Z,8.57
2017-12-08T03:24:42.469Z,7.97
2017-12-08T03:27:25.058Z,8.73
2017-12-08T03:30:07.987Z,9.50
2017-12-08T03:32:50.586Z,8.30
2017-12-08T03:35:33.170Z,5.00
2017-12-08T03:38:15.661Z,6.40
2017-12-08T03:40:58.557Z,10.80
2017-12-08T03:43:41.255Z,6.80
2017-12-08T03:46:29.858Z,8.40
2017-12-08T03:49:12.558Z,7.27
2017-12-08T03:51:55.167Z,6.57
2017-12-08T03:54:38.052Z,7.70
2017-12-08T03:57:20.549Z,6.10
2017-12-08T04:00:03.215Z,8.67
2017-12-08T04:02:45.938Z,7.93
2017-12-08T04:05:30.396Z,10.77
2017-12-08T04:08:13.199Z,22.30
2017-12-08T04:10:55.962Z,18.80
2017-12-08T04:13:38.696Z,12.83
2017-12-08T04:16:21.294Z,9.50
2017-12-08T04:19:03.838Z,12.50
2017-12-08T04:21:46.410Z,10.00
2017-12-08T04:24:43.547Z,22.87
2017-12-08T04:27:32.629Z,11.60
2017-12-08T04:30:15.071Z,18.20
2017-12-08T04:32:57.702Z,10.00
2017-12-08T04:35:40.382Z,16.17
2017-12-08T04:38:23.311Z,14.60
2017-12-08T04:41:06.937Z,16.70
2017-12-08T04:43:49.910Z,10.80
2017-12-08T04:46:32.498Z,10.70
2017-12-08T04:49:15.273Z,9.10
2017-12-08T04:52:04.167Z,13.23
2017-12-08T04:54:46.901Z,10.20
2017-12-08T04:57:29.945Z,12.33
2017-12-08T05:00:12.285Z,13.80
2017-12-08T05:02:54.753Z,12.00
2017-12-08T05:05:37.352Z,9.83
2017-12-08T05:08:19.876Z,11.00
2017-12-08T05:11:02.597Z,13.87
2017-12-08T05:13:45.150Z,17.73
2017-12-08T05:16:35.009Z,11.97
2017-12-08T05:19:19.193Z,11.37
2017-12-08T05:22:02.182Z,11.77
2017-12-08T05:24:44.760Z,12.60
2017-12-08T05:27:27.111Z,11.53
2017-12-08T05:30:09.754Z,12.60
2017-12-08T05:32:52.474Z,13.30
2017-12-08T05:35:41.255Z,12.40
2017-12-08T05:38:23.817Z,12.47
2017-12-08T05:41:06.463Z,15.93
2017-12-08T05:43:49.166Z,11.43
2017-12-08T05:46:32.126Z,13.13
2017-12-08T05:49:14.578Z,16.63
2017-12-08T05:51:57.290Z,11.10
2017-12-08T05:54:40.206Z,13.27
2017-12-08T05:57:36.061Z,12.50
2017-12-08T06:00:18.522Z,11.60
2017-12-08T06:03:01.245Z,11.90
2017-12-08T06:05:43.802Z,11.43
2017-12-08T06:08:26.506Z,10.90
2017-12-08T06:11:21.906Z,9.30
2017-12-08T06:14:04.938Z,9.17
2017-12-08T06:16:47.329Z,11.10
2017-12-08T06:19:30.405Z,11.10
2017-12-08T06:22:20.049Z,10.77
2017-12-08T06:25:02.574Z,10.17
2017-12-08T06:27:45.570Z,13.10
2017-12-08T06:30:28.405Z,11.40
2017-12-08T06:33:18.018Z,9.83
2017-12-08T06:36:00.490Z,9.97
2017-12-08T06:38:43.049Z,10.53
2017-12-08T06:41:25.700Z,10.40
2017-12-08T06:44:08.343Z,8.47
2017-12-08T06:46:51.001Z,10.47
2017-12-08T06:49:33.953Z,11.70
2017-12-08T06:52:16.630Z,10.13
2017-12-08T06:55:05.996Z,12.17
2017-12-08T06:57:48.870Z,12.37
2017-12-08T07:00:31.454Z,12.00
2017-12-08T07:03:14.818Z,11.17
2017-12-08T07:05:57.629Z,15.30
2017-12-08T07:08:40.131Z,13.70
2017-12-08T07:11:22.783Z,13.07
2017-12-08T07:14:05.322Z,12.30
2017-12-08T07:16:48.053Z,11.97
2017-12-08T07:19:30.807Z,14.30
2017-12-08T07:22:13.316Z,13.80
2017-12-08T07:24:55.954Z,11.60
2017-12-08T07:27:39.370Z,14.70
2017-12-08T07:30:28.486Z,12.57
2017-12-08T07:33:19.326Z,20.70
2017-12-08T07:36:01.777Z,17.03
2017-12-08T07:38:44.710Z,18.37
2017-12-08T07:41:27.407Z,24.60
2017-12-08T07:44:10.986Z,21.53
2017-12-08T07:46:53.787Z,18.43
2017-12-08T07:49:50.233Z,21.10
2017-12-08T07:52:33.263Z,18.10
2017-12-08T07:55:16.051Z,17.57
2017-12-08T07:57:58.753Z,16.93
2017-12-08T08:00:41.298Z,20.10
2017-12-08T08:03:23.933Z,14.80
2017-12-08T08:06:06.665Z,19.10
2017-12-08T08:08:49.490Z,16.30
2017-12-08T08:11:32.307Z,16.83
2017-12-08T08:14:21.156Z,16.60
2017-12-08T08:17:03.418Z,16.27
2017-12-08T08:19:46.028Z,15.97
2017-12-08T08:22:29.301Z,15.80
2017-12-08T08:25:11.609Z,18.13
2017-12-08T08:27:54.340Z,13.90
2017-12-08T08:30:38.011Z,15.97
2017-12-08T08:33:24.027Z,24.73
2017-12-08T08:36:06.437Z,27.67
2017-12-08T08:38:49.390Z,15.90
2017-12-08T08:41:31.661Z,16.30
2017-12-08T08:44:14.253Z,20.57
2017-12-08T08:46:56.866Z,16.47
2017-12-08T08:49:39.458Z,18.50
2017-12-08T08:52:23.098Z,23.83
2017-12-08T08:55:05.933Z,19.30
2017-12-08T08:57:48.527Z,22.33
2017-12-08T09:00:31.346Z,18.50
2017-12-08T09:03:14.556Z,16.17
2017-12-08T09:05:57.714Z,23.20
2017-12-08T09:08:46.974Z,23.57
2017-12-08T09:11:32.939Z,22.50
2017-12-08T09:14:15.451Z,18.13
2017-12-08T09:16:59.734Z,19.03
2017-12-08T09:19:42.774Z,17.23
2017-12-08T09:22:25.198Z,25.07
2017-12-08T09:25:07.990Z,24.30
2017-12-08T09:27:50.614Z,24.30
2017-12-08T09:30:33.204Z,26.63
2017-12-08T09:33:22.289Z,21.47
2017-12-08T09:36:04.629Z,18.07
2017-12-08T09:38:49.077Z,25.17
2017-12-08T09:41:31.900Z,28.20
2017-12-08T09:44:14.795Z,23.30
2017-12-08T09:46:57.441Z,22.10
2017-12-08T09:49:40.149Z,21.93
2017-12-08T09:52:22.702Z,19.90
2017-12-08T09:55:06.574Z,67.07
2017-12-08T09:57:49.078Z,23.27
2017-12-08T10:00:33.305Z,25.63
2017-12-08T10:03:15.430Z,22.90
2017-12-08T10:05:58.315Z,26.50
2017-12-08T10:08:40.942Z,21.27
2017-12-08T10:11:23.917Z,28.17
2017-12-08T10:14:07.242Z,23.70
2017-12-08T10:16:51.507Z,21.77
2017-12-08T10:19:34.466Z,24.67
2017-12-08T10:22:17.147Z,28.00
2017-12-08T10:25:07.045Z,18.70
2017-12-08T10:27:49.574Z,23.43
2017-12-08T10:30:44.197Z,20.63
2017-12-08T10:33:26.796Z,17.67
2017-12-08T10:36:09.419Z,23.03
2017-12-08T10:38:53.088Z,21.10
2017-12-08T10:41:35.958Z,18.50
2017-12-08T10:44:18.648Z,19.07
2017-12-08T10:47:01.290Z,19.77
2017-12-08T10:49:44.249Z,18.00
2017-12-08T10:52:26.737Z,19.63
2017-12-08T10:55:10.054Z,23.27
2017-12-08T10:57:53.682Z,16.77
2017-12-08T11:00:44.374Z,18.00
2017-12-08T11:03:27.160Z,22.97
2017-12-08T11:06:09.749Z,25.10
2017-12-08T11:08:52.454Z,19.63
2017-12-08T11:11:35.055Z,24.40
2017-12-08T11:14:17.685Z,21.67
2017-12-08T11:17:00.121Z,21.27
2017-12-08T11:19:42.938Z,19.53
2017-12-08T11:22:25.708Z,28.23
2017-12-08T11:25:08.535Z,20.40
2017-12-08T11:27:52.014Z,23.97
2017-12-08T11:30:34.489Z,29.53
2017-12-08T11:33:17.057Z,23.63
2017-12-08T11:36:08.032Z,20.40
2017-12-08T11:38:50.939Z,23.80
2017-12-08T11:41:33.812Z,26.07
2017-12-08T11:44:16.444Z,26.13
2017-12-08T11:46:59.134Z,25.60
2017-12-08T11:49:42.059Z,20.93
2017-12-08T11:52:24.458Z,20.63
2017-12-08T11:55:07.212Z,22.00
2017-12-08T11:57:49.626Z,20.80
2017-12-08T12:00:39.425Z,15.57
2017-12-08T12:03:21.921Z,16.63
2017-12-08T12:06:04.538Z,16.40
2017-12-08T12:08:47.052Z,20.50
2017-12-08T12:11:29.768Z,19.23
2017-12-08T12:14:12.157Z,20.03
2017-12-08T12:16:54.760Z,16.50
2017-12-08T12:19:38.488Z,19.10
2017-12-08T12:22:21.055Z,18.57
2017-12-08T12:25:04.050Z,21.60
2017-12-08T12:27:46.695Z,21.50
2017-12-08T12:30:29.115Z,19.13
2017-12-08T12:33:11.793Z,21.73
2017-12-08T12:35:56.249Z,23.40
2017-12-08T12:38:39.201Z,22.13
2017-12-08T12:41:25.266Z,21.40
2017-12-08T12:44:08.089Z,18.40
2017-12-08T12:46:50.997Z,25.73
2017-12-08T12:49:33.695Z,21.07
2017-12-08T12:52:16.224Z,17.40
2017-12-08T12:54:58.825Z,22.00
2017-12-08T12:57:41.381Z,18.30
2017-12-08T13:00:36.226Z,18.33
2017-12-08T13:03:18.846Z,17.40
2017-12-08T13:06:01.561Z,24.30
2017-12-08T13:08:46.037Z,32.23
2017-12-08T13:11:34.705Z,33.43
2017-12-08T13:14:17.476Z,31.80
2017-12-08T13:17:00.266Z,27.33
2017-12-08T13:19:42.850Z,30.70
2017-12-08T13:22:25.530Z,32.73
2017-12-08T13:25:08.389Z,29.23
2017-12-08T13:27:50.684Z,29.10
2017-12-08T13:30:33.235Z,35.63
2017-12-08T13:33:16.077Z,30.67
2017-12-08T13:35:58.606Z,33.33
2017-12-08T13:38:41.207Z,36.73
2017-12-08T13:41:23.877Z,50.67
2017-12-08T13:44:06.328Z,31.77
2017-12-08T13:46:48.786Z,24.17
2017-12-08T13:49:31.479Z,21.90
2017-12-08T13:52:14.090Z,25.83
2017-12-08T13:55:02.487Z,24.47
2017-12-08T13:57:45.172Z,25.80
2017-12-08T14:00:27.867Z,24.43
2017-12-08T14:03:11.762Z,23.10
2017-12-08T14:05:54.285Z,26.00
2017-12-08T14:08:36.886Z,26.20
2017-12-08T14:11:19.623Z,28.27
2017-12-08T14:14:01.895Z,24.97
2017-12-08T14:16:57.358Z,22.37
2017-12-08T14:19:40.186Z,26.73
2017-12-08T14:22:23.322Z,25.90
2017-12-08T14:25:05.699Z,26.57
2017-12-08T14:27:49.077Z,21.37
2017-12-08T14:30:32.194Z,19.97
2017-12-08T14:33:14.458Z,30.10
2017-12-08T14:36:04.691Z,25.50
2017-12-08T14:38:47.503Z,25.63
2017-12-08T14:41:38.802Z,25.67
2017-12-08T14:44:21.682Z,20.10
2017-12-08T14:47:05.476Z,25.60
2017-12-08T14:49:48.023Z,33.07
2017-12-08T14:52:30.634Z,23.80
2017-12-08T14:55:13.352Z,24.87
2017-12-08T14:57:59.674Z,25.43
2017-12-08T15:00:42.655Z,25.47
2017-12-08T15:03:25.155Z,24.37
2017-12-08T15:06:07.891Z,25.67
2017-12-08T15:08:50.424Z,27.23
2017-12-08T15:11:33.070Z,24.00
2017-12-08T15:14:21.604Z,21.47
2017-12-08T15:17:04.658Z,23.77
2017-12-08T15:19:47.001Z,25.20
2017-12-08T15:22:29.707Z,27.53
2017-12-08T15:25:12.313Z,25.40
2017-12-08T15:27:54.836Z,36.30
2017-12-08T15:30:37.480Z,22.70
2017-12-08T15:33:20.273Z,87.27
2017-12-08T15:36:16.293Z,18.70
2017-12-08T15:38:58.762Z,23.70
2017-12-08T15:41:41.465Z,18.07
2017-12-08T15:44:24.056Z,18.37
2017-12-08T15:47:06.498Z,23.30
2017-12-08T15:49:49.009Z,17.83
2017-12-08T15:52:31.630Z,15.37
2017-12-08T15:55:14.110Z,17.77
2017-12-08T15:57:56.779Z,19.93
2017-12-08T16:00:39.422Z,19.33
2017-12-08T16:03:22.118Z,18.00
2017-12-08T16:06:04.476Z,15.53
2017-12-08T16:08:47.008Z,17.63
2017-12-08T16:11:29.671Z,21.60
2017-12-08T16:14:12.220Z,16.50
2017-12-08T16:16:54.718Z,20.20
2017-12-08T16:19:37.270Z,19.80
2017-12-08T16:22:20.147Z,18.10
2017-12-08T16:25:02.899Z,16.37
2017-12-08T16:27:48.866Z,20.20
2017-12-08T16:30:31.991Z,17.43
2017-12-08T16:33:14.513Z,20.87
2017-12-08T16:35:56.883Z,16.90
2017-12-08T16:38:39.555Z,15.60
2017-12-08T16:41:22.349Z,17.17
2017-12-08T16:44:05.368Z,12.13
2017-12-08T16:46:47.573Z,13.97
2017-12-08T16:49:30.503Z,9.70
2017-12-08T16:52:25.586Z,11.10
2017-12-08T16:55:20.548Z,13.00
2017-12-08T16:58:02.968Z,12.17
2017-12-08T17:00:45.859Z,14.73
2017-12-08T17:03:28.367Z,16.80
2017-12-08T17:06:11.164Z,10.93
2017-12-08T17:08:53.458Z,8.67
2017-12-08T17:11:36.063Z,11.80
2017-12-08T17:14:18.638Z,9.03
2017-12-08T17:17:01.383Z,12.73
2017-12-08T17:19:43.765Z,9.83
2017-12-08T17:22:32.575Z,12.00
2017-12-08T17:25:16.655Z,10.17
2017-12-08T17:28:12.125Z,12.40
2017-12-08T17:30:54.894Z,13.97
2017-12-08T17:33:37.325Z,13.33
2017-12-08T17:36:19.894Z,11.70
2017-12-08T17:39:02.490Z,8.37
2017-12-08T17:41:45.323Z,9.53
2017-12-08T17:44:28.813Z,8.40
2017-12-08T17:47:12.488Z,9.20
2017-12-08T17:49:55.468Z,11.70
2017-12-08T17:52:38.409Z,9.50
2017-12-08T17:55:24.096Z,8.13
2017-12-08T17:58:06.990Z,9.57
2017-12-08T18:00:49.829Z,7.33
2017-12-08T18:03:32.456Z,8.67
2017-12-08T18:06:15.533Z,7.83
2017-12-08T18:08:57.772Z,11.73
2017-12-08T18:11:40.570Z,8.23
2017-12-08T18:14:23.377Z,7.20
2017-12-08T18:17:05.979Z,12.10
2017-12-08T18:19:49.867Z,9.33
2017-12-08T18:22:44.739Z,9.43
2017-12-08T18:25:27.665Z,11.40
2017-12-08T18:28:10.146Z,13.97
2017-12-08T18:30:53.738Z,12.67
2017-12-08T18:33:36.267Z,13.60
2017-12-08T18:36:20.629Z,11.20
2017-12-08T18:39:03.621Z,13.23
2017-12-08T18:41:46.227Z,17.37
2017-12-08T18:44:28.729Z,12.07
2017-12-08T18:47:12.307Z,9.40
2017-12-08T18:49:55.247Z,12.23
2017-12-08T18:52:37.982Z,11.80
2017-12-08T18:55:20.558Z,11.87
2017-12-08T18:58:03.067Z,9.33
2017-12-08T19:00:45.927Z,12.67
2017-12-08T19:03:28.448Z,11.17
2017-12-08T19:06:10.719Z,10.50
2017-12-08T19:08:56.098Z,17.23
2017-12-08T19:11:39.093Z,10.63
2017-12-08T19:14:22.345Z,10.60
2017-12-08T19:17:05.215Z,12.77
2017-12-08T19:19:47.721Z,12.13
2017-12-08T19:22:30.635Z,10.43
2017-12-08T19:25:13.059Z,12.23
2017-12-08T19:27:55.822Z,13.40
2017-12-08T19:30:38.579Z,12.47
2017-12-08T19:33:21.251Z,13.50
2017-12-08T19:36:03.710Z,12.67
2017-12-08T19:39:01.659Z,15.87
2017-12-08T19:41:43.805Z,9.73
2017-12-08T19:44:26.394Z,8.87
2017-12-08T19:47:09.033Z,14.90
2017-12-08T19:49:57.702Z,14.00
2017-12-08T19:52:40.108Z,11.40
2017-12-08T19:55:22.980Z,10.90
2017-12-08T19:58:05.794Z,21.97
2017-12-08T20:00:47.911Z,13.90
2017-12-08T20:03:31.075Z,11.87
2017-12-08T20:06:13.747Z,12.40
2017-12-08T20:09:03.065Z,11.57
2017-12-08T20:11:45.544Z,11.37
2017-12-08T20:14:28.502Z,12.33
2017-12-08T20:17:11.071Z,13.70
2017-12-08T20:19:53.566Z,15.90
2017-12-08T20:22:36.162Z,13.77
2017-12-08T20:25:22.609Z,12.63
2017-12-08T20:28:09.144Z,16.03
2017-12-08T20:30:52.267Z,13.37
2017-12-08T20:33:34.901Z,16.90
2017-12-08T20:36:17.737Z,14.97
2017-12-08T20:39:01.874Z,12.93
2017-12-08T20:41:44.880Z,10.30
2017-12-08T20:44:27.023Z,12.17
2017-12-08T20:47:09.851Z,13.13
2017-12-08T20:49:52.351Z,18.17
2017-12-08T20:52:34.925Z,13.60
2017-12-08T20:55:17.477Z,17.20
2017-12-08T20:57:59.957Z,26.97
2017-12-08T21:00:42.716Z,33.20
2017-12-08T21:03:25.795Z,17.60
2017-12-08T21:06:09.019Z,22.70
2017-12-08T21:08:51.504Z,25.10
2017-12-08T21:11:34.271Z,32.60
2017-12-08T21:14:23.873Z,25.50
2017-12-08T21:17:08.071Z,21.10
2017-12-08T21:19:50.867Z,22.30
2017-12-08T21:22:33.756Z,23.93
2017-12-08T21:25:16.941Z,19.70
2017-12-08T21:28:11.653Z,19.23
2017-12-08T21:30:53.916Z,29.80
2017-12-08T21:33:36.834Z,17.53
2017-12-08T21:36:19.674Z,16.83
2017-12-08T21:39:02.167Z,19.70
2017-12-08T21:41:45.931Z,18.33
2017-12-08T21:44:55.519Z,19.97
2017-12-08T21:47:38.237Z,21.90
2017-12-08T21:50:20.635Z,19.13
2017-12-08T21:53:03.314Z,18.53
2017-12-08T21:55:46.119Z,18.33
2017-12-08T21:58:28.651Z,20.80
2017-12-08T22:01:11.262Z,19.87
2017-12-08T22:03:53.938Z,19.60
2017-12-08T22:06:36.531Z,20.10
2017-12-08T22:09:19.236Z,18.23
2017-12-08T22:12:01.802Z,18.47
2017-12-08T22:14:44.493Z,18.20
2017-12-08T22:17:27.354Z,21.00
2017-12-08T22:20:16.851Z,19.43
2017-12-08T22:22:59.361Z,22.17
2017-12-08T22:25:42.087Z,15.70
2017-12-08T22:28:24.703Z,19.17
2017-12-08T22:31:07.358Z,16.23
2017-12-08T22:33:50.179Z,18.43
2017-12-08T22:36:32.694Z,15.13
2017-12-08T22:39:15.323Z,16.20
2017-12-08T22:41:58.363Z,14.60
2017-12-08T22:44:41.116Z,12.67
2017-12-08T22:47:23.594Z,16.17
2017-12-08T22:50:06.897Z,18.17
2017-12-08T22:52:49.894Z,22.50
2017-12-08T22:55:32.526Z,16.87
2017-12-08T22:58:15.138Z,13.53
2017-12-08T23:00:57.614Z,17.20
2017-12-08T23:03:40.319Z,13.83
2017-12-08T23:06:22.965Z,14.73
2017-12-08T23:09:05.502Z,16.07
2017-12-08T23:11:48.350Z,14.07
2017-12-08T23:14:30.909Z,14.40
2017-12-08T23:17:13.749Z,14.70
2017-12-08T23:19:56.146Z,14.60
2017-12-08T23:22:38.715Z,11.60
2017-12-08T23:25:21.534Z,12.50
2017-12-08T23:28:04.511Z,12.43
2017-12-08T23:30:47.516Z,9.00
2017-12-08T23:33:29.684Z,15.73
2017-12-08T23:36:19.119Z,10.93
2017-12-08T23:39:01.994Z,10.50
2017-12-08T23:41:44.594Z,7.60
2017-12-08T23:44:33.811Z,5.70
2017-12-08T23:47:16.537Z,8.40
2017-12-08T23:49:59.253Z,7.30
2017-12-08T23:52:42.276Z,6.47
2017-12-08T23:55:25.116Z,7.23
2017-12-08T23:58:08.446Z,7.10
